Pagrindinis puslapis
METAR-TAF:

METAR-TAF

Oro uostai :

Gran Kanarija, Ispanija

platuma: 27-56N, ilguma: 015-23W, Aukštis: 23 m

Dabartinis oras

Ataskaita buvo paskelbta 52 minutes, ne 22:00 UTC
Vėjas 11 kt iš Šiaurės
Temperatūra 17°C
Drėgmė 59%
Slėgis 1019 hPa
Matomumas 10 km arba daugiau
Mažai debesys ne aukštis 3000 ft

METAR: GCLP 212200Z 36011KT 9999 FEW030 17/09 Q1019 NOSIG

Laikas: 22:52 (22:52 UTC)

Prognozė

Ataskaita buvo paskelbta 2 valandos ir 52 minutes, ne 20:00 UTC
Prognozė galioja nuo 21 metu 21 UTC su 22 metu 21 UTC
Vėjas 15 kt iš Šiaurės Vakarų
Matomumas 10 km arba daugiau
Išsisklaidę debesys ne aukštis 3000 ft
Tikimybė 30% :
Laikinai
nuo 21 metu 21 UTC su 21 metu 23 UTC
Vėjas 16 kt iš Šiaurės/Šiaurės Rytų
Laikinai
nuo 22 metu 10 UTC su 22 metu 17 UTC
Vėjas 5 kt nuo kintamojo kryptimis
Tapsmas
nuo 22 metu 12 UTC su 22 metu 14 UTC
Matomumas: 3000 m
migla

TAF: GCLP 212000Z 2121/2221 32015KT 9999 SCT030 TX25/2214Z TN15/2206Z PROB30 TEMPO 2121/2123 02016KT TEMPO 2210/2217 VRB05KT BECMG 2212/2214 3000 HZ

Orai ataskaitas ir orų prognozės (METAR, TAF).

turimą stotys yra geltonos ir raudonos taškus žemėlapyje.

Perkelti pele per norėdami pamatyti stoties vardą.

Tada spustelėkite, norėdami matyti oro stebėjimo ir prognozės.

Norėdami pakeisti žemėlapį: spustelėkite ant žalios mygtukų su juodo kryžiaus žemyn,; žalią mygtuką su brūkšneliu, jei norite nutolinti; arba žalių rodyklių gretimoms žemėlapius.


METAR-TAF: